sensor_id;sensor_type;location;lat;lon;timestamp;temperature;humidity
34815;DHT22;21030;53.912;15.214;2023-04-01T00:01:49;30.10;26.10
34815;DHT22;21030;53.912;15.214;2023-04-01T00:04:16;30.40;26.20
34815;DHT22;21030;53.912;15.214;2023-04-01T00:06:43;30.50;26.10
34815;DHT22;21030;53.912;15.214;2023-04-01T00:09:10;30.50;26.00
34815;DHT22;21030;53.912;15.214;2023-04-01T00:11:37;31.10;25.90
34815;DHT22;21030;53.912;15.214;2023-04-01T00:14:06;30.40;25.50
34815;DHT22;21030;53.912;15.214;2023-04-01T00:16:33;31.20;25.70
34815;DHT22;21030;53.912;15.214;2023-04-01T00:19:00;30.80;25.60
34815;DHT22;21030;53.912;15.214;2023-04-01T00:21:28;30.50;26.10
34815;DHT22;21030;53.912;15.214;2023-04-01T00:23:55;30.90;26.00
34815;DHT22;21030;53.912;15.214;2023-04-01T00:26:22;30.50;25.70
34815;DHT22;21030;53.912;15.214;2023-04-01T00:28:50;30.30;25.90
34815;DHT22;21030;53.912;15.214;2023-04-01T00:31:17;31.00;25.70
34815;DHT22;21030;53.912;15.214;2023-04-01T00:33:45;31.10;25.70
34815;DHT22;21030;53.912;15.214;2023-04-01T00:36:18;30.90;25.20
34815;DHT22;21030;53.912;15.214;2023-04-01T00:38:45;29.30;25.90
34815;DHT22;21030;53.912;15.214;2023-04-01T00:41:14;30.00;26.10
34815;DHT22;21030;53.912;15.214;2023-04-01T00:43:44;30.00;26.50
34815;DHT22;21030;53.912;15.214;2023-04-01T00:46:12;30.70;25.90
34815;DHT22;21030;53.912;15.214;2023-04-01T00:48:43;30.80;25.70
34815;DHT22;21030;53.912;15.214;2023-04-01T00:51:17;31.40;25.40
34815;DHT22;21030;53.912;15.214;2023-04-01T00:53:48;31.30;25.50
34815;DHT22;21030;53.912;15.214;2023-04-01T00:56:30;31.60;25.20
34815;DHT22;21030;53.912;15.214;2023-04-01T00:59:01;31.90;25.00
34815;DHT22;21030;53.912;15.214;2023-04-01T01:01:29;31.50;25.30
34815;DHT22;21030;53.912;15.214;2023-04-01T01:03:57;31.30;25.20
34815;DHT22;21030;53.912;15.214;2023-04-01T01:06:46;31.60;25.20
34815;DHT22;21030;53.912;15.214;2023-04-01T01:11:50;32.20;24.70
34815;DHT22;21030;53.912;15.214;2023-04-01T01:25:58;31.50;25.00
34815;DHT22;21030;53.912;15.214;2023-04-01T01:32:09;31.80;24.80
34815;DHT22;21030;53.912;15.214;2023-04-01T01:37:16;30.10;25.10
34815;DHT22;21030;53.912;15.214;2023-04-01T01:39:50;30.90;25.30
34815;DHT22;21030;53.912;15.214;2023-04-01T01:42:19;30.60;25.50
34815;DHT22;21030;53.912;15.214;2023-04-01T01:44:49;29.90;25.40
34815;DHT22;21030;53.912;15.214;2023-04-01T01:47:17;29.90;25.80
34815;DHT22;21030;53.912;15.214;2023-04-01T01:49:46;30.20;25.90
34815;DHT22;21030;53.912;15.214;2023-04-01T01:52:13;30.80;25.50
34815;DHT22;21030;53.912;15.214;2023-04-01T01:54:54;30.30;25.20
34815;DHT22;21030;53.912;15.214;2023-04-01T01:57:34;30.90;25.40
34815;DHT22;21030;53.912;15.214;2023-04-01T02:00:09;30.50;25.50
34815;DHT22;21030;53.912;15.214;2023-04-01T02:02:46;30.70;25.30
34815;DHT22;21030;53.912;15.214;2023-04-01T02:05:23;29.90;25.40
34815;DHT22;21030;53.912;15.214;2023-04-01T02:08:05;29.90;25.40
34815;DHT22;21030;53.912;15.214;2023-04-01T02:10:36;30.00;26.10
34815;DHT22;21030;53.912;15.214;2023-04-01T02:13:06;30.40;25.80
34815;DHT22;21030;53.912;15.214;2023-04-01T02:15:37;30.80;25.60
34815;DHT22;21030;53.912;15.214;2023-04-01T02:18:08;31.10;25.30
34815;DHT22;21030;53.912;15.214;2023-04-01T02:20:37;31.50;25.50
34815;DHT22;21030;53.912;15.214;2023-04-01T02:23:05;31.00;24.70
34815;DHT22;21030;53.912;15.214;2023-04-01T02:25:36;31.00;25.00
34815;DHT22;21030;53.912;15.214;2023-04-01T02:28:06;32.10;24.60
34815;DHT22;21030;53.912;15.214;2023-04-01T02:30:36;32.20;24.10
34815;DHT22;21030;53.912;15.214;2023-04-01T02:33:05;31.40;24.30
34815;DHT22;21030;53.912;15.214;2023-04-01T02:35:35;31.50;24.50
34815;DHT22;21030;53.912;15.214;2023-04-01T02:38:03;30.70;24.80
34815;DHT22;21030;53.912;15.214;2023-04-01T02:40:48;31.10;25.10
34815;DHT22;21030;53.912;15.214;2023-04-01T02:43:16;30.80;25.10
34815;DHT22;21030;53.912;15.214;2023-04-01T02:45:44;31.30;25.00
34815;DHT22;21030;53.912;15.214;2023-04-01T02:48:11;30.00;25.00
34815;DHT22;21030;53.912;15.214;2023-04-01T02:50:40;30.60;25.60
34815;DHT22;21030;53.912;15.214;2023-04-01T02:53:07;30.60;25.20
34815;DHT22;21030;53.912;15.214;2023-04-01T02:55:35;31.00;25.00
34815;DHT22;21030;53.912;15.214;2023-04-01T02:58:02;30.10;24.90
34815;DHT22;21030;53.912;15.214;2023-04-01T03:00:29;31.00;25.30
34815;DHT22;21030;53.912;15.214;2023-04-01T03:02:57;31.00;24.80
34815;DHT22;21030;53.912;15.214;2023-04-01T03:05:24;31.20;25.20
34815;DHT22;21030;53.912;15.214;2023-04-01T03:07:51;31.30;24.70
34815;DHT22;21030;53.912;15.214;2023-04-01T03:10:18;31.80;24.40
34815;DHT22;21030;53.912;15.214;2023-04-01T03:12:45;31.10;24.60
34815;DHT22;21030;53.912;15.214;2023-04-01T03:15:13;30.90;25.10
34815;DHT22;21030;53.912;15.214;2023-04-01T03:17:42;30.70;25.00
34815;DHT22;21030;53.912;15.214;2023-04-01T03:20:11;30.60;25.20
34815;DHT22;21030;53.912;15.214;2023-04-01T03:22:38;29.40;25.60
34815;DHT22;21030;53.912;15.214;2023-04-01T03:25:09;29.10;26.30
34815;DHT22;21030;53.912;15.214;2023-04-01T03:27:36;29.80;25.80
34815;DHT22;21030;53.912;15.214;2023-04-01T03:30:04;29.80;25.90
34815;DHT22;21030;53.912;15.214;2023-04-01T03:32:32;29.30;25.80
34815;DHT22;21030;53.912;15.214;2023-04-01T03:34:59;29.90;25.90
34815;DHT22;21030;53.912;15.214;2023-04-01T03:37:27;29.70;25.30
34815;DHT22;21030;53.912;15.214;2023-04-01T03:39:54;29.60;26.20
34815;DHT22;21030;53.912;15.214;2023-04-01T03:42:21;29.70;25.80
34815;DHT22;21030;53.912;15.214;2023-04-01T03:44:48;28.80;26.20
34815;DHT22;21030;53.912;15.214;2023-04-01T03:47:15;28.30;26.90
34815;DHT22;21030;53.912;15.214;2023-04-01T03:49:42;28.70;26.40
34815;DHT22;21030;53.912;15.214;2023-04-01T03:52:10;29.40;26.40
34815;DHT22;21030;53.912;15.214;2023-04-01T03:54:37;29.00;25.90
34815;DHT22;21030;53.912;15.214;2023-04-01T03:57:05;28.80;26.50
34815;DHT22;21030;53.912;15.214;2023-04-01T03:59:32;28.60;26.80
34815;DHT22;21030;53.912;15.214;2023-04-01T04:01:59;29.40;26.50
34815;DHT22;21030;53.912;15.214;2023-04-01T04:04:27;29.70;26.10
34815;DHT22;21030;53.912;15.214;2023-04-01T04:06:54;29.30;25.70
34815;DHT22;21030;53.912;15.214;2023-04-01T04:09:21;30.30;25.80
34815;DHT22;21030;53.912;15.214;2023-04-01T04:11:49;30.40;25.30
34815;DHT22;21030;53.912;15.214;2023-04-01T04:14:16;29.70;25.20
34815;DHT22;21030;53.912;15.214;2023-04-01T04:16:43;30.80;25.40
34815;DHT22;21030;53.912;15.214;2023-04-01T04:19:10;30.70;25.30
34815;DHT22;21030;53.912;15.214;2023-04-01T04:21:39;29.90;25.00
34815;DHT22;21030;53.912;15.214;2023-04-01T04:24:06;29.60;25.50
34815;DHT22;21030;53.912;15.214;2023-04-01T04:26:33;29.60;26.30
34815;DHT22;21030;53.912;15.214;2023-04-01T04:29:00;30.50;25.80
34815;DHT22;21030;53.912;15.214;2023-04-01T04:31:28;30.70;25.00
34815;DHT22;21030;53.912;15.214;2023-04-01T04:33:55;30.80;25.20
34815;DHT22;21030;53.912;15.214;2023-04-01T04:36:22;31.00;24.90
34815;DHT22;21030;53.912;15.214;2023-04-01T04:38:49;30.20;25.40
34815;DHT22;21030;53.912;15.214;2023-04-01T04:41:18;29.50;25.30
34815;DHT22;21030;53.912;15.214;2023-04-01T04:43:54;29.30;25.70
34815;DHT22;21030;53.912;15.214;2023-04-01T04:46:22;29.60;26.10
34815;DHT22;21030;53.912;15.214;2023-04-01T04:48:49;29.40;25.90
34815;DHT22;21030;53.912;15.214;2023-04-01T04:51:17;29.80;25.70
34815;DHT22;21030;53.912;15.214;2023-04-01T04:53:45;29.40;25.80
34815;DHT22;21030;53.912;15.214;2023-04-01T04:56:12;28.80;25.50
34815;DHT22;21030;53.912;15.214;2023-04-01T04:58:40;29.50;26.20
34815;DHT22;21030;53.912;15.214;2023-04-01T05:01:12;30.50;25.70
34815;DHT22;21030;53.912;15.214;2023-04-01T05:03:40;30.00;25.10
34815;DHT22;21030;53.912;15.214;2023-04-01T05:06:09;29.20;25.70
34815;DHT22;21030;53.912;15.214;2023-04-01T05:08:37;28.90;26.10
34815;DHT22;21030;53.912;15.214;2023-04-01T05:11:16;29.80;25.80
34815;DHT22;21030;53.912;15.214;2023-04-01T05:13:44;30.20;25.50
34815;DHT22;21030;53.912;15.214;2023-04-01T05:16:17;29.40;25.60
34815;DHT22;21030;53.912;15.214;2023-04-01T05:18:45;29.00;26.10
34815;DHT22;21030;53.912;15.214;2023-04-01T05:21:14;28.90;25.80
34815;DHT22;21030;53.912;15.214;2023-04-01T05:23:41;28.90;26.20
34815;DHT22;21030;53.912;15.214;2023-04-01T05:26:11;28.80;26.30
34815;DHT22;21030;53.912;15.214;2023-04-01T05:28:39;29.80;25.90
34815;DHT22;21030;53.912;15.214;2023-04-01T05:31:07;29.60;25.50
34815;DHT22;21030;53.912;15.214;2023-04-01T05:33:35;29.80;25.90
34815;DHT22;21030;53.912;15.214;2023-04-01T05:36:07;30.10;25.20
34815;DHT22;21030;53.912;15.214;2023-04-01T05:38:35;29.70;25.70
34815;DHT22;21030;53.912;15.214;2023-04-01T05:41:02;29.60;25.90
34815;DHT22;21030;53.912;15.214;2023-04-01T05:43:30;30.60;25.10
34815;DHT22;21030;53.912;15.214;2023-04-01T05:45:57;30.50;25.00
34815;DHT22;21030;53.912;15.214;2023-04-01T05:48:24;30.40;24.70
34815;DHT22;21030;53.912;15.214;2023-04-01T05:50:52;29.60;25.20
34815;DHT22;21030;53.912;15.214;2023-04-01T05:53:20;30.30;25.40
34815;DHT22;21030;53.912;15.214;2023-04-01T05:55:47;31.00;25.10
34815;DHT22;21030;53.912;15.214;2023-04-01T05:58:14;31.20;24.60
34815;DHT22;21030;53.912;15.214;2023-04-01T06:00:42;30.70;24.20
34815;DHT22;21030;53.912;15.214;2023-04-01T06:03:09;30.00;24.80
34815;DHT22;21030;53.912;15.214;2023-04-01T06:05:41;30.00;25.20
34815;DHT22;21030;53.912;15.214;2023-04-01T06:08:14;30.30;25.00
34815;DHT22;21030;53.912;15.214;2023-04-01T06:33:56;30.20;25.50
34815;DHT22;21030;53.912;15.214;2023-04-01T06:39:31;30.50;24.70
34815;DHT22;21030;53.912;15.214;2023-04-01T06:42:08;30.60;24.60
34815;DHT22;21030;53.912;15.214;2023-04-01T06:53:43;28.80;25.50
34815;DHT22;21030;53.912;15.214;2023-04-01T06:56:18;28.30;26.00
34815;DHT22;21030;53.912;15.214;2023-04-01T06:59:13;28.30;26.30
34815;DHT22;21030;53.912;15.214;2023-04-01T07:04:48;28.30;26.20
34815;DHT22;21030;53.912;15.214;2023-04-01T07:10:09;29.20;25.60
34815;DHT22;21030;53.912;15.214;2023-04-01T07:12:56;30.00;25.40
34815;DHT22;21030;53.912;15.214;2023-04-01T07:15:46;30.10;25.40
34815;DHT22;21030;53.912;15.214;2023-04-01T07:18:19;30.30;24.90
34815;DHT22;21030;53.912;15.214;2023-04-01T07:20:49;29.80;25.20
34815;DHT22;21030;53.912;15.214;2023-04-01T07:23:32;29.50;25.30
34815;DHT22;21030;53.912;15.214;2023-04-01T07:26:15;30.00;25.10
34815;DHT22;21030;53.912;15.214;2023-04-01T07:28:42;30.30;24.90
34815;DHT22;21030;53.912;15.214;2023-04-01T07:36:43;29.00;25.00
34815;DHT22;21030;53.912;15.214;2023-04-01T07:47:41;29.60;24.90
34815;DHT22;21030;53.912;15.214;2023-04-01T07:50:11;30.00;25.10
34815;DHT22;21030;53.912;15.214;2023-04-01T08:01:18;28.80;25.50
34815;DHT22;21030;53.912;15.214;2023-04-01T08:06:51;29.70;25.20
34815;DHT22;21030;53.912;15.214;2023-04-01T08:17:54;30.10;25.10
34815;DHT22;21030;53.912;15.214;2023-04-01T08:20:50;29.20;24.90
34815;DHT22;21030;53.912;15.214;2023-04-01T08:23:22;29.90;25.00
34815;DHT22;21030;53.912;15.214;2023-04-01T08:26:02;29.40;24.80
34815;DHT22;21030;53.912;15.214;2023-04-01T08:33:58;29.50;24.80
34815;DHT22;21030;53.912;15.214;2023-04-01T08:36:28;28.90;24.80
34815;DHT22;21030;53.912;15.214;2023-04-01T08:47:52;28.20;25.90
34815;DHT22;21030;53.912;15.214;2023-04-01T08:56:12;28.00;26.60
34815;DHT22;21030;53.912;15.214;2023-04-01T09:46:14;29.10;25.30
34815;DHT22;21030;53.912;15.214;2023-04-01T10:08:36;28.70;24.80
34815;DHT22;21030;53.912;15.214;2023-04-01T10:11:43;30.40;24.40
34815;DHT22;21030;53.912;15.214;2023-04-01T10:20:54;29.50;24.60
34815;DHT22;21030;53.912;15.214;2023-04-01T10:26:26;29.20;24.40
34815;DHT22;21030;53.912;15.214;2023-04-01T10:44:26;28.30;24.20
34815;DHT22;21030;53.912;15.214;2023-04-01T10:50:24;27.60;25.40
34815;DHT22;21030;53.912;15.214;2023-04-01T11:10:17;29.70;24.80
34815;DHT22;21030;53.912;15.214;2023-04-01T11:24:29;27.30;25.00
34815;DHT22;21030;53.912;15.214;2023-04-01T11:29:53;27.50;25.30
34815;DHT22;21030;53.912;15.214;2023-04-01T11:43:46;26.50;26.10
34815;DHT22;21030;53.912;15.214;2023-04-01T11:54:55;27.60;25.30
34815;DHT22;21030;53.912;15.214;2023-04-01T12:17:48;28.30;24.10
34815;DHT22;21030;53.912;15.214;2023-04-01T12:24:11;28.50;24.40
34815;DHT22;21030;53.912;15.214;2023-04-01T12:29:14;28.30;23.40
34815;DHT22;21030;53.912;15.214;2023-04-01T12:45:33;26.90;25.40
34815;DHT22;21030;53.912;15.214;2023-04-01T12:50:39;26.50;24.90
34815;DHT22;21030;53.912;15.214;2023-04-01T12:56:03;27.50;24.70
34815;DHT22;21030;53.912;15.214;2023-04-01T12:58:56;27.00;24.10
34815;DHT22;21030;53.912;15.214;2023-04-01T13:01:43;26.60;25.00
34815;DHT22;21030;53.912;15.214;2023-04-01T13:07:10;27.30;25.80
34815;DHT22;21030;53.912;15.214;2023-04-01T13:15:28;27.90;24.20
34815;DHT22;21030;53.912;15.214;2023-04-01T13:18:19;27.50;24.60
34815;DHT22;21030;53.912;15.214;2023-04-01T13:26:42;27.40;24.60
34815;DHT22;21030;53.912;15.214;2023-04-01T13:38:14;26.10;25.60
34815;DHT22;21030;53.912;15.214;2023-04-01T13:41:01;26.30;25.30
34815;DHT22;21030;53.912;15.214;2023-04-01T13:43:49;25.40;26.00
34815;DHT22;21030;53.912;15.214;2023-04-01T13:46:33;25.60;26.30
34815;DHT22;21030;53.912;15.214;2023-04-01T14:09:54;26.40;25.20
34815;DHT22;21030;53.912;15.214;2023-04-01T14:12:29;25.70;24.70
34815;DHT22;21030;53.912;15.214;2023-04-01T14:31:44;26.70;25.00
34815;DHT22;21030;53.912;15.214;2023-04-01T14:34:31;27.50;24.30
34815;DHT22;21030;53.912;15.214;2023-04-01T14:37:15;28.60;24.00
34815;DHT22;21030;53.912;15.214;2023-04-01T14:40:00;27.90;23.70
34815;DHT22;21030;53.912;15.214;2023-04-01T14:42:59;27.60;23.90
34815;DHT22;21030;53.912;15.214;2023-04-01T14:46:06;26.90;24.10
34815;DHT22;21030;53.912;15.214;2023-04-01T14:48:38;26.50;24.80
34815;DHT22;21030;53.912;15.214;2023-04-01T14:51:31;25.30;25.30
34815;DHT22;21030;53.912;15.214;2023-04-01T14:56:44;25.70;26.30
34815;DHT22;21030;53.912;15.214;2023-04-01T15:02:45;27.70;24.70
34815;DHT22;21030;53.912;15.214;2023-04-01T15:05:05;27.90;24.10
34815;DHT22;21030;53.912;15.214;2023-04-01T15:08:09;28.00;23.50
34815;DHT22;21030;53.912;15.214;2023-04-01T15:11:24;26.60;24.40
34815;DHT22;21030;53.912;15.214;2023-04-01T15:16:00;28.10;24.10
34815;DHT22;21030;53.912;15.214;2023-04-01T15:23:55;25.90;24.80
34815;DHT22;21030;53.912;15.214;2023-04-01T15:34:35;27.30;24.40
34815;DHT22;21030;53.912;15.214;2023-04-01T15:37:29;26.80;24.40
34815;DHT22;21030;53.912;15.214;2023-04-01T15:43:01;26.50;24.40
34815;DHT22;21030;53.912;15.214;2023-04-01T15:46:44;26.50;24.40
34815;DHT22;21030;53.912;15.214;2023-04-01T15:52:17;27.00;24.20
34815;DHT22;21030;53.912;15.214;2023-04-01T16:08:50;28.40;23.20
34815;DHT22;21030;53.912;15.214;2023-04-01T16:14:11;28.20;23.30
34815;DHT22;21030;53.912;15.214;2023-04-01T16:22:16;26.20;24.40
34815;DHT22;21030;53.912;15.214;2023-04-01T16:25:46;27.00;23.90
34815;DHT22;21030;53.912;15.214;2023-04-01T16:30:38;26.50;24.10
34815;DHT22;21030;53.912;15.214;2023-04-01T16:36:12;25.90;24.10
34815;DHT22;21030;53.912;15.214;2023-04-01T16:44:25;25.00;24.70
34815;DHT22;21030;53.912;15.214;2023-04-01T16:47:08;26.70;24.20
34815;DHT22;21030;53.912;15.214;2023-04-01T16:49:40;25.20;24.10
34815;DHT22;21030;53.912;15.214;2023-04-01T16:57:18;27.70;23.10
34815;DHT22;21030;53.912;15.214;2023-04-01T17:08:38;27.50;22.40
34815;DHT22;21030;53.912;15.214;2023-04-01T17:22:26;25.80;23.10
34815;DHT22;21030;53.912;15.214;2023-04-01T17:27:59;25.90;23.80
34815;DHT22;21030;53.912;15.214;2023-04-01T17:33:38;26.60;23.10
34815;DHT22;21030;53.912;15.214;2023-04-01T17:42:06;25.10;24.00
34815;DHT22;21030;53.912;15.214;2023-04-01T17:47:36;24.50;24.00
34815;DHT22;21030;53.912;15.214;2023-04-01T17:50:28;26.10;24.20
34815;DHT22;21030;53.912;15.214;2023-04-01T17:56:08;25.10;23.70
34815;DHT22;21030;53.912;15.214;2023-04-01T18:06:42;25.70;24.00
34815;DHT22;21030;53.912;15.214;2023-04-01T18:13:04;25.60;23.40
34815;DHT22;21030;53.912;15.214;2023-04-01T18:15:49;25.30;23.70
34815;DHT22;21030;53.912;15.214;2023-04-01T18:21:45;25.30;23.50
34815;DHT22;21030;53.912;15.214;2023-04-01T18:24:27;25.40;23.80
34815;DHT22;21030;53.912;15.214;2023-04-01T18:27:24;25.60;23.90
34815;DHT22;21030;53.912;15.214;2023-04-01T18:30:11;26.00;23.60
34815;DHT22;21030;53.912;15.214;2023-04-01T18:38:44;24.80;23.60
34815;DHT22;21030;53.912;15.214;2023-04-01T18:41:35;24.30;24.20
34815;DHT22;21030;53.912;15.214;2023-04-01T18:44:42;24.30;24.20
34815;DHT22;21030;53.912;15.214;2023-04-01T18:47:27;24.60;24.20
34815;DHT22;21030;53.912;15.214;2023-04-01T18:52:39;25.70;23.40
34815;DHT22;21030;53.912;15.214;2023-04-01T18:57:58;25.10;23.30
34815;DHT22;21030;53.912;15.214;2023-04-01T19:00:34;25.90;23.60
34815;DHT22;21030;53.912;15.214;2023-04-01T19:03:20;26.10;23.20
34815;DHT22;21030;53.912;15.214;2023-04-01T19:05:52;25.70;23.40
34815;DHT22;21030;53.912;15.214;2023-04-01T19:08:30;23.50;24.20
34815;DHT22;21030;53.912;15.214;2023-04-01T19:11:41;24.30;25.10
34815;DHT22;21030;53.912;15.214;2023-04-01T19:20:17;24.20;24.60
34815;DHT22;21030;53.912;15.214;2023-04-01T19:25:55;26.10;23.30
34815;DHT22;21030;53.912;15.214;2023-04-01T19:28:35;27.20;22.60
34815;DHT22;21030;53.912;15.214;2023-04-01T19:41:57;27.40;22.20
34815;DHT22;21030;53.912;15.214;2023-04-01T19:44:53;27.80;22.10
34815;DHT22;21030;53.912;15.214;2023-04-01T19:47:29;28.10;21.90
34815;DHT22;21030;53.912;15.214;2023-04-01T19:50:20;27.50;21.80
34815;DHT22;21030;53.912;15.214;2023-04-01T19:52:50;27.80;22.00
34815;DHT22;21030;53.912;15.214;2023-04-01T19:55:48;27.40;22.10
34815;DHT22;21030;53.912;15.214;2023-04-01T19:58:31;27.20;22.10
34815;DHT22;21030;53.912;15.214;2023-04-01T20:01:00;28.30;22.00
34815;DHT22;21030;53.912;15.214;2023-04-01T20:04:08;28.60;21.40
34815;DHT22;21030;53.912;15.214;2023-04-01T20:06:57;28.80;21.70
34815;DHT22;21030;53.912;15.214;2023-04-01T20:12:11;28.40;21.70
34815;DHT22;21030;53.912;15.214;2023-04-01T20:14:45;28.30;21.50
34815;DHT22;21030;53.912;15.214;2023-04-01T20:20:23;27.40;22.10
34815;DHT22;21030;53.912;15.214;2023-04-01T20:23:45;27.20;22.00
34815;DHT22;21030;53.912;15.214;2023-04-01T20:26:14;27.90;21.90
34815;DHT22;21030;53.912;15.214;2023-04-01T20:29:17;28.10;21.80
34815;DHT22;21030;53.912;15.214;2023-04-01T20:37:36;27.80;21.70
34815;DHT22;21030;53.912;15.214;2023-04-01T20:40:28;25.80;22.40
34815;DHT22;21030;53.912;15.214;2023-04-01T20:51:46;27.30;22.40
34815;DHT22;21030;53.912;15.214;2023-04-01T20:57:06;27.60;22.60
34815;DHT22;21030;53.912;15.214;2023-04-01T21:13:39;30.90;20.30
34815;DHT22;21030;53.912;15.214;2023-04-01T21:44:43;25.80;23.00
34815;DHT22;21030;53.912;15.214;2023-04-01T21:47:35;25.60;22.60
34815;DHT22;21030;53.912;15.214;2023-04-01T21:50:34;24.80;22.60
34815;DHT22;21030;53.912;15.214;2023-04-01T22:07:06;26.20;22.00
34815;DHT22;21030;53.912;15.214;2023-04-01T22:09:42;25.70;22.20
34815;DHT22;21030;53.912;15.214;2023-04-01T22:17:49;25.50;23.20
34815;DHT22;21030;53.912;15.214;2023-04-01T22:20:28;24.40;23.30
34815;DHT22;21030;53.912;15.214;2023-04-01T22:23:10;23.50;24.10
34815;DHT22;21030;53.912;15.214;2023-04-01T22:29:05;26.00;23.60
34815;DHT22;21030;53.912;15.214;2023-04-01T22:34:20;25.80;22.90
34815;DHT22;21030;53.912;15.214;2023-04-01T22:50:32;27.10;22.00
34815;DHT22;21030;53.912;15.214;2023-04-01T22:55:51;26.10;22.30
34815;DHT22;21030;53.912;15.214;2023-04-01T22:58:30;25.50;22.40
34815;DHT22;21030;53.912;15.214;2023-04-01T23:01:01;24.30;23.50
34815;DHT22;21030;53.912;15.214;2023-04-01T23:03:34;25.50;23.40
34815;DHT22;21030;53.912;15.214;2023-04-01T23:06:04;25.00;23.50
34815;DHT22;21030;53.912;15.214;2023-04-01T23:08:54;25.80;23.10
34815;DHT22;21030;53.912;15.214;2023-04-01T23:11:51;24.50;23.30
34815;DHT22;21030;53.912;15.214;2023-04-01T23:20:07;24.70;24.10
34815;DHT22;21030;53.912;15.214;2023-04-01T23:33:22;26.60;22.60
34815;DHT22;21030;53.912;15.214;2023-04-01T23:35:56;25.90;22.70
34815;DHT22;21030;53.912;15.214;2023-04-01T23:38:36;25.30;23.30
34815;DHT22;21030;53.912;15.214;2023-04-01T23:41:05;25.90;22.90
34815;DHT22;21030;53.912;15.214;2023-04-01T23:43:37;26.70;22.60
34815;DHT22;21030;53.912;15.214;2023-04-01T23:46:06;26.10;22.40
34815;DHT22;21030;53.912;15.214;2023-04-01T23:48:44;25.70;22.70
34815;DHT22;21030;53.912;15.214;2023-04-01T23:51:25;26.50;22.60
34815;DHT22;21030;53.912;15.214;2023-04-01T23:54:32;26.50;22.30
34815;DHT22;21030;53.912;15.214;2023-04-01T23:56:59;26.40;22.20
34815;DHT22;21030;53.912;15.214;2023-04-01T23:59:33;26.70;22.20
